createdAt,value
2022-09-06T00:02:20.798Z,101380.44
2022-09-06T00:04:49.279Z,101377.52
2022-09-06T00:07:27.676Z,101370.66
2022-09-06T00:09:56.527Z,101370.33
2022-09-06T00:12:25.411Z,101367.75
2022-09-06T00:14:54.031Z,101371.02
2022-09-06T00:17:22.696Z,101367.23
2022-09-06T00:20:03.832Z,101372.89
2022-09-06T00:22:32.640Z,101373.23
2022-09-06T00:25:00.940Z,101373.23
2022-09-06T00:27:39.472Z,101374.95
2022-09-06T00:30:10.671Z,101373.25
2022-09-06T00:32:38.960Z,101370.84
2022-09-06T00:35:07.948Z,101373.24
2022-09-06T00:37:36.407Z,101371.35
2022-09-06T00:40:14.527Z,101376.48
2022-09-06T00:42:43.307Z,101375.63
2022-09-06T00:45:12.315Z,101374.95
2022-09-06T00:47:43.208Z,101373.75
2022-09-06T00:50:15.134Z,101369.98
2022-09-06T00:52:45.634Z,101364.16
2022-09-06T00:55:14.365Z,101363.46
2022-09-06T00:57:43.428Z,101365.35
2022-09-06T01:00:15.556Z,101369.81
2022-09-06T01:02:44.084Z,101371.52
2022-09-06T01:05:13.884Z,101369.98
2022-09-06T01:08:15.273Z,101368.28
2022-09-06T01:11:08.280Z,101365.53
2022-09-06T01:13:48.826Z,101365.52
2022-09-06T01:19:50.288Z,101364.50
2022-09-06T01:22:40.355Z,101363.64
2022-09-06T01:25:28.627Z,101361.58
2022-09-06T01:28:27.950Z,101361.57
2022-09-06T01:34:20.207Z,101361.75
2022-09-06T01:37:32.968Z,101361.93
2022-09-06T01:40:04.278Z,101359.35
2022-09-06T01:42:36.898Z,101362.27
2022-09-06T01:45:12.765Z,101362.45
2022-09-06T01:47:55.176Z,101362.80
2022-09-06T01:50:41.752Z,101363.98
2022-09-06T01:53:23.618Z,101361.75
2022-09-06T01:56:02.300Z,101362.95
2022-09-06T01:58:51.577Z,101360.04
2022-09-06T02:01:29.606Z,101358.33
2022-09-06T02:04:04.904Z,101357.64
2022-09-06T02:06:36.193Z,101358.67
2022-09-06T02:09:12.216Z,101363.98
2022-09-06T02:11:50.067Z,101365.69
2022-09-06T02:14:29.745Z,101364.14
2022-09-06T02:17:03.075Z,101366.02
2022-09-06T02:19:38.674Z,101362.95
2022-09-06T02:22:16.128Z,101364.65
2022-09-06T02:24:50.601Z,101363.97
2022-09-06T02:27:21.721Z,101365.33
2022-09-06T02:29:53.261Z,101362.91
2022-09-06T02:32:25.967Z,101366.16
2022-09-06T02:34:58.865Z,101365.81
2022-09-06T02:37:30.381Z,101367.86
2022-09-06T02:40:01.474Z,101370.78
2022-09-06T02:42:32.648Z,101372.14
2022-09-06T02:45:05.462Z,101370.59
2022-09-06T02:47:36.445Z,101372.14
2022-09-06T02:50:08.890Z,101371.80
2022-09-06T02:52:39.772Z,101374.53
2022-09-06T02:55:12.369Z,101373.00
2022-09-06T02:57:44.028Z,101369.91
2022-09-06T03:00:18.845Z,101371.11
2022-09-06T03:02:49.842Z,101370.60
2022-09-06T03:05:21.360Z,101367.02
2022-09-06T03:07:53.016Z,101364.78
2022-09-06T03:10:26.390Z,101362.20
2022-09-06T03:12:57.365Z,101356.03
2022-09-06T03:15:28.252Z,101352.60
2022-09-06T03:18:01.545Z,101353.61
2022-09-06T03:20:36.810Z,101355.48
2022-09-06T03:23:09.631Z,101359.41
2022-09-06T03:25:40.644Z,101359.91
2022-09-06T03:28:11.687Z,101362.81
2022-09-06T03:30:46.101Z,101358.86
2022-09-06T03:33:17.765Z,101356.80
2022-09-06T03:35:52.990Z,101356.80
2022-09-06T03:38:23.519Z,101362.61
2022-09-06T03:40:54.954Z,101364.31
2022-09-06T03:43:30.344Z,101364.15
2022-09-06T03:46:02.672Z,101365.66
2022-09-06T03:48:33.952Z,101363.09
2022-09-06T03:51:05.461Z,101364.81
2022-09-06T03:53:36.440Z,101360.87
2022-09-06T03:56:08.023Z,101362.08
2022-09-06T03:58:39.047Z,101358.14
2022-09-06T04:01:12.300Z,101359.70
2022-09-06T04:03:43.540Z,101354.90
2022-09-06T04:06:14.521Z,101355.42
2022-09-06T04:08:45.499Z,101352.85
2022-09-06T04:11:17.472Z,101350.80
2022-09-06T04:17:31.658Z,101347.73
2022-09-06T04:20:02.750Z,101347.55
2022-09-06T04:22:33.711Z,101348.93
2022-09-06T04:25:04.737Z,101346.19
2022-09-06T04:27:35.957Z,101345.88
2022-09-06T04:30:08.752Z,101346.23
2022-09-06T04:32:39.611Z,101348.34
2022-09-06T04:35:11.715Z,101346.84
2022-09-06T04:37:42.900Z,101351.06
2022-09-06T04:40:14.866Z,101349.64
2022-09-06T04:42:45.715Z,101350.98
2022-09-06T04:45:16.810Z,101356.80
2022-09-06T04:47:50.525Z,101350.59
2022-09-06T04:50:21.701Z,101348.22
2022-09-06T04:55:54.366Z,101350.54
2022-09-06T04:58:25.413Z,101349.54
2022-09-06T05:00:56.768Z,101346.80
2022-09-06T05:03:27.793Z,101344.85
2022-09-06T05:06:08.982Z,101342.98
2022-09-06T05:08:41.887Z,101342.17
2022-09-06T05:11:13.372Z,101342.16
2022-09-06T06:06:50.229Z,101334.84
2022-09-06T06:09:21.148Z,101330.08
2022-09-06T06:11:52.098Z,101329.77
2022-09-06T06:14:25.142Z,101327.83
2022-09-06T06:16:56.096Z,101328.30
2022-09-06T06:19:27.244Z,101330.27
2022-09-06T06:22:00.755Z,101335.77
2022-09-06T06:24:31.940Z,101337.80
2022-09-06T06:27:02.886Z,101339.11
2022-09-06T06:29:33.937Z,101344.27
2022-09-06T06:36:08.669Z,101341.43
2022-09-06T06:38:41.591Z,101342.06
2022-09-06T06:41:16.488Z,101338.61
2022-09-06T06:43:47.960Z,101340.29
2022-09-06T06:46:20.236Z,101337.14
2022-09-06T06:48:54.734Z,101337.55
2022-09-06T06:51:28.340Z,101342.38
2022-09-06T06:54:00.185Z,101346.28
2022-09-06T06:56:34.486Z,101347.97
2022-09-06T06:59:09.501Z,101352.38
2022-09-06T07:01:43.652Z,101355.54
2022-09-06T07:04:15.407Z,101354.41
2022-09-06T07:12:36.968Z,101356.89
2022-09-06T07:15:09.980Z,101358.59
2022-09-06T07:17:44.338Z,101364.56
2022-09-06T07:20:17.410Z,101359.46
2022-09-06T07:22:50.771Z,101362.70
2022-09-06T07:25:22.101Z,101366.91
2022-09-06T07:28:05.672Z,101360.67
2022-09-06T07:30:38.643Z,101361.00
2022-09-06T07:33:09.563Z,101361.81
2022-09-06T07:35:41.965Z,101360.30
2022-09-06T07:38:13.195Z,101359.58
2022-09-06T07:40:54.640Z,101352.94
2022-09-06T07:43:26.412Z,101359.19
2022-09-06T07:46:05.352Z,101353.95
2022-09-06T07:48:37.932Z,101352.53
2022-09-06T07:51:11.686Z,101354.80
2022-09-06T07:53:44.316Z,101349.93
2022-09-06T07:56:15.444Z,101348.86
2022-09-06T07:58:46.441Z,101351.55
2022-09-06T08:01:28.191Z,101346.12
2022-09-06T08:04:00.674Z,101350.54
2022-09-06T08:09:25.269Z,101350.23
2022-09-06T08:11:56.510Z,101354.05
2022-09-06T08:14:27.567Z,101350.36
2022-09-06T08:16:58.550Z,101344.45
2022-09-06T08:19:29.583Z,101350.89
2022-09-06T08:22:00.781Z,101355.06
2022-09-06T08:24:32.933Z,101341.66
2022-09-06T08:27:04.204Z,101340.30
2022-09-06T08:29:35.167Z,101350.52
2022-09-06T08:32:06.479Z,101344.73
2022-09-06T08:34:37.360Z,101344.22
2022-09-06T08:37:08.354Z,101340.69
2022-09-06T08:39:39.837Z,101344.29
2022-09-06T08:42:12.382Z,101334.01
2022-09-06T08:44:56.414Z,101333.39
2022-09-06T08:47:26.738Z,101345.44
2022-09-06T08:50:06.582Z,101337.47
2022-09-06T08:55:54.273Z,101328.05
2022-09-06T08:58:42.723Z,101322.01
2022-09-06T09:01:18.717Z,101320.11
2022-09-06T09:03:49.818Z,101317.00
2022-09-06T09:06:21.171Z,101312.80
2022-09-06T09:09:06.597Z,101311.17
2022-09-06T09:11:40.819Z,101305.86
2022-09-06T09:14:21.690Z,101306.92
2022-09-06T09:16:56.238Z,101299.99
2022-09-06T09:19:27.143Z,101295.18
2022-09-06T09:21:58.359Z,101288.77
2022-09-06T09:24:31.438Z,101294.64
2022-09-06T09:27:11.328Z,101297.28
2022-09-06T09:32:51.930Z,101290.29
2022-09-06T09:35:32.451Z,101288.19
2022-09-06T09:38:11.017Z,101282.98
2022-09-06T09:40:52.133Z,101283.09
2022-09-06T09:43:25.840Z,101281.50
2022-09-06T09:46:29.836Z,101282.76
2022-09-06T09:49:08.177Z,101277.33
2022-09-06T09:51:41.105Z,101272.94
2022-09-06T09:54:14.143Z,101269.38
2022-09-06T09:56:48.209Z,101268.36
2022-09-06T09:59:26.884Z,101260.19
2022-09-06T10:02:01.603Z,101260.80
2022-09-06T10:04:45.207Z,101258.95
2022-09-06T10:07:19.797Z,101254.73
2022-09-06T10:09:59.140Z,101248.48
2022-09-06T10:12:34.274Z,101245.94
2022-09-06T10:15:07.183Z,101247.52
2022-09-06T10:17:48.741Z,101248.98
2022-09-06T10:20:20.597Z,101244.44
2022-09-06T10:23:00.228Z,101233.54
2022-09-06T10:25:49.747Z,101228.70
2022-09-06T10:28:39.103Z,101226.08
2022-09-06T10:31:51.104Z,101225.43
2022-09-06T10:34:46.719Z,101223.44
2022-09-06T10:37:25.324Z,101228.41
2022-09-06T10:40:04.386Z,101228.63
2022-09-06T10:42:43.179Z,101224.52
2022-09-06T10:45:37.262Z,101218.05
2022-09-06T10:48:15.001Z,101221.84
2022-09-06T10:50:52.841Z,101216.85
2022-09-06T10:53:45.577Z,101215.05
2022-09-06T10:56:23.375Z,101216.08
2022-09-06T11:02:04.087Z,101202.84
2022-09-06T11:07:34.579Z,101196.94
2022-09-06T11:10:14.446Z,101197.10
2022-09-06T11:12:50.775Z,101197.52
2022-09-06T11:15:23.813Z,101191.33
2022-09-06T11:18:01.950Z,101193.65
2022-09-06T11:20:40.073Z,101191.20
2022-09-06T11:23:33.698Z,101190.20
2022-09-06T11:26:39.679Z,101186.40
2022-09-06T11:29:17.809Z,101187.08
2022-09-06T11:32:17.077Z,101187.58
2022-09-06T11:34:57.866Z,101185.95
2022-09-06T11:37:32.759Z,101186.09
2022-09-06T11:43:40.081Z,101182.69
2022-09-06T11:46:11.160Z,101172.36
2022-09-06T11:49:05.344Z,101163.36
2022-09-06T11:51:40.394Z,101157.98
2022-09-06T11:54:28.666Z,101157.36
2022-09-06T11:57:03.810Z,101149.89
2022-09-06T11:59:43.322Z,101148.91
2022-09-06T12:02:40.966Z,101144.94
2022-09-06T12:05:19.773Z,101140.39
2022-09-06T12:08:30.597Z,101138.89
2022-09-06T12:11:16.512Z,101138.42
2022-09-06T12:14:00.050Z,101142.59
2022-09-06T12:17:26.959Z,101136.58
2022-09-06T12:20:09.619Z,101130.38
2022-09-06T12:23:06.060Z,101129.11
2022-09-06T12:26:06.185Z,101124.35
2022-09-06T12:28:45.227Z,101119.09
2022-09-06T12:31:40.538Z,101115.98
2022-09-06T12:34:19.257Z,101114.63
2022-09-06T12:36:56.683Z,101112.64
2022-09-06T12:39:28.345Z,101115.39
2022-09-06T12:42:02.366Z,101113.79
2022-09-06T12:44:37.575Z,101099.45
2022-09-06T12:47:19.452Z,101101.36
2022-09-06T12:50:13.098Z,101099.92
2022-09-06T12:52:52.592Z,101098.51
2022-09-06T12:55:28.379Z,101099.05
2022-09-06T12:58:04.025Z,101102.48
2022-09-06T13:00:38.842Z,101100.06
2022-09-06T13:03:25.781Z,101099.64
2022-09-06T13:05:58.909Z,101100.27
2022-09-06T13:08:37.680Z,101095.70
2022-09-06T13:11:14.534Z,101094.89
2022-09-06T13:13:52.738Z,101084.83
2022-09-06T13:16:39.346Z,101088.46
2022-09-06T13:19:19.002Z,101087.74
2022-09-06T13:21:50.184Z,101092.46
2022-09-06T13:24:27.310Z,101082.96
2022-09-06T13:27:01.283Z,101083.69
2022-09-06T13:29:34.330Z,101084.85
2022-09-06T13:32:09.685Z,101086.46
2022-09-06T13:34:50.929Z,101088.00
2022-09-06T13:37:22.172Z,101090.27
2022-09-06T13:39:53.412Z,101088.64
2022-09-06T13:42:33.195Z,101088.44
2022-09-06T13:45:23.777Z,101082.96
2022-09-06T13:48:07.867Z,101086.42
2022-09-06T13:50:45.723Z,101082.27
2022-09-06T13:53:21.854Z,101081.59
2022-09-06T13:55:53.398Z,101079.98
2022-09-06T13:58:24.772Z,101077.20
2022-09-06T14:00:56.198Z,101074.05
2022-09-06T14:03:33.031Z,101068.33
2022-09-06T14:06:08.381Z,101058.88
2022-09-06T14:09:05.355Z,101056.23
2022-09-06T14:11:30.881Z,101054.99
2022-09-06T14:14:01.896Z,101055.80
2022-09-06T14:16:33.197Z,101051.83
2022-09-06T14:19:04.671Z,101051.84
2022-09-06T14:21:35.650Z,101050.34
2022-09-06T14:24:07.286Z,101053.20
2022-09-06T14:26:38.746Z,101047.39
2022-09-06T14:29:09.755Z,101050.58
2022-09-06T14:31:40.840Z,101045.45
2022-09-06T14:34:11.813Z,101044.61
2022-09-06T14:36:42.767Z,101043.42
2022-09-06T14:39:13.673Z,101044.16
2022-09-06T14:41:44.566Z,101042.13
2022-09-06T14:44:15.476Z,101042.02
2022-09-06T14:46:47.890Z,101041.42
2022-09-06T14:49:20.655Z,101035.70
2022-09-06T14:51:52.916Z,101036.23
2022-09-06T14:54:27.361Z,101036.45
2022-09-06T14:57:00.212Z,101025.92
2022-09-06T14:59:31.413Z,101026.95
2022-09-06T15:02:02.410Z,101024.89
2022-09-06T15:04:33.572Z,101023.13
2022-09-06T15:07:04.738Z,101020.75
2022-09-06T15:09:35.584Z,101017.02
2022-09-06T15:12:07.333Z,101011.61
2022-09-06T15:14:38.420Z,101013.98
2022-09-06T15:17:10.848Z,101010.65
2022-09-06T15:19:44.988Z,101008.67
2022-09-06T15:22:15.976Z,101003.72
2022-09-06T15:24:47.705Z,101001.56
2022-09-06T15:27:18.928Z,100999.41
2022-09-06T15:29:50.000Z,101003.89
2022-09-06T15:32:20.860Z,101000.07
2022-09-06T15:34:51.694Z,100996.77
2022-09-06T15:37:22.631Z,100994.45
2022-09-06T15:39:55.981Z,100996.26
2022-09-06T15:42:27.203Z,100992.85
2022-09-06T15:44:58.149Z,100991.93
2022-09-06T15:47:30.306Z,100989.81
2022-09-06T15:50:07.878Z,100991.65
2022-09-06T15:52:41.221Z,100984.28
2022-09-06T15:55:29.933Z,100988.53
2022-09-06T15:58:00.931Z,100982.62
2022-09-06T16:00:32.112Z,100983.33
2022-09-06T16:03:03.048Z,100977.77
2022-09-06T16:08:28.712Z,100973.95
2022-09-06T16:11:07.329Z,100965.14
2022-09-06T16:13:40.194Z,100964.46
2022-09-06T16:16:15.945Z,100967.95
2022-09-06T16:19:00.804Z,100962.98
2022-09-06T16:21:34.174Z,100964.71
2022-09-06T16:24:08.393Z,100962.15
2022-09-06T16:26:45.071Z,100958.15
2022-09-06T16:29:32.318Z,100956.61
2022-09-06T16:32:03.536Z,100959.55
2022-09-06T16:35:06.165Z,100957.79
2022-09-06T16:37:38.942Z,100958.95
2022-09-06T16:40:12.476Z,100961.46
2022-09-06T16:42:44.204Z,100958.01
2022-09-06T16:45:15.604Z,100956.41
2022-09-06T16:47:46.636Z,100963.11
2022-09-06T16:50:17.633Z,100960.60
2022-09-06T16:52:58.301Z,100965.02
2022-09-06T16:55:43.608Z,100967.38
2022-09-06T16:58:15.768Z,100969.83
2022-09-06T17:00:47.652Z,100970.34
2022-09-06T17:03:33.860Z,100970.15
2022-09-06T17:06:05.473Z,100968.20
2022-09-06T17:09:03.209Z,100971.45
2022-09-06T17:11:40.252Z,100971.06
2022-09-06T17:14:43.503Z,100969.29
2022-09-06T17:17:17.926Z,100972.91
2022-09-06T17:19:49.116Z,100970.28
2022-09-06T17:22:25.165Z,100971.48
2022-09-06T17:25:14.121Z,100966.98
2022-09-06T17:27:46.130Z,100965.73
2022-09-06T17:30:18.133Z,100970.70
2022-09-06T17:32:49.626Z,100973.38
2022-09-06T17:35:21.620Z,100975.43
2022-09-06T17:38:06.384Z,100976.77
2022-09-06T17:40:37.597Z,100980.52
2022-09-06T17:43:12.567Z,100981.84
2022-09-06T17:45:45.153Z,100985.00
2022-09-06T17:48:16.216Z,100981.98
2022-09-06T17:50:47.745Z,100984.49
2022-09-06T17:53:19.590Z,100981.89
2022-09-06T17:55:58.669Z,100984.30
2022-09-06T17:58:42.653Z,100984.48
2022-09-06T18:01:15.652Z,100988.10
2022-09-06T18:03:47.902Z,100992.42
2022-09-06T18:06:22.897Z,100995.71
2022-09-06T18:08:53.736Z,100993.11
2022-09-06T18:11:30.160Z,100991.20
2022-09-06T18:14:03.372Z,100993.59
2022-09-06T18:16:49.210Z,100991.52
2022-09-06T18:22:39.251Z,100990.95
2022-09-06T18:25:11.487Z,100991.63
2022-09-06T18:27:42.774Z,100993.84
2022-09-06T18:34:23.831Z,101000.34
2022-09-06T18:36:55.021Z,101001.15
2022-09-06T18:39:26.498Z,101004.35
2022-09-06T18:42:10.710Z,101009.11
2022-09-06T18:44:41.810Z,101008.19
2022-09-06T18:47:14.242Z,101011.91
2022-09-06T18:49:45.719Z,101011.52
2022-09-06T18:52:18.867Z,101007.30
2022-09-06T18:54:50.338Z,101006.52
2022-09-06T18:57:21.481Z,101009.73
2022-09-06T18:59:52.778Z,101006.17
2022-09-06T19:02:25.547Z,101006.09
2022-09-06T19:04:59.326Z,101003.24
2022-09-06T19:07:30.440Z,101004.85
2022-09-06T19:10:04.585Z,101005.81
2022-09-06T19:12:35.703Z,101001.40
2022-09-06T19:15:07.976Z,101001.64
2022-09-06T19:17:39.245Z,100998.27
2022-09-06T19:20:12.189Z,100997.67
2022-09-06T19:22:43.439Z,100999.64
2022-09-06T19:25:14.513Z,101002.65
2022-09-06T19:27:48.766Z,100998.90
2022-09-06T19:30:20.534Z,101000.36
2022-09-06T19:32:51.779Z,101002.33
2022-09-06T19:35:22.734Z,101001.36
2022-09-06T19:37:53.732Z,101001.11
2022-09-06T19:40:24.861Z,100997.06
2022-09-06T19:42:56.212Z,100997.83
2022-09-06T19:45:27.146Z,100995.13
2022-09-06T19:47:58.657Z,100993.98
2022-09-06T19:50:33.253Z,100992.52
2022-09-06T19:53:07.069Z,100991.23
2022-09-06T19:55:39.085Z,100988.38
2022-09-06T19:58:10.692Z,100988.13
2022-09-06T20:00:45.218Z,100989.28
2022-09-06T20:03:16.221Z,100988.16
2022-09-06T20:05:47.931Z,100989.27
2022-09-06T20:08:19.408Z,100988.13
2022-09-06T20:10:58.363Z,100989.05
2022-09-06T20:13:30.142Z,100989.65
2022-09-06T20:16:01.317Z,100981.99
2022-09-06T20:18:32.641Z,100983.45
2022-09-06T20:21:06.213Z,100979.23
2022-09-06T20:23:37.873Z,100977.41
2022-09-06T20:26:11.171Z,100980.75
2022-09-06T20:28:44.206Z,100985.80
2022-09-06T20:31:18.672Z,100987.77
2022-09-06T20:33:50.196Z,100989.02
2022-09-06T20:36:21.841Z,100992.50
2022-09-06T20:38:53.577Z,100985.16
2022-09-06T20:41:26.897Z,100984.36
2022-09-06T20:43:59.549Z,100983.58
2022-09-06T20:46:34.069Z,100981.58
2022-09-06T20:49:07.787Z,100982.31
2022-09-06T20:51:43.310Z,100978.77
2022-09-06T20:54:14.640Z,100977.28
2022-09-06T20:56:46.216Z,100979.05
2022-09-06T20:59:17.517Z,100977.36
2022-09-06T21:01:49.673Z,100978.63
2022-09-06T21:04:21.759Z,100973.70
2022-09-06T21:06:52.890Z,100974.96
2022-09-06T21:09:24.303Z,100973.46
2022-09-06T21:11:55.775Z,100969.73
2022-09-06T21:14:27.570Z,100967.38
2022-09-06T21:16:59.654Z,100971.73
2022-09-06T21:19:31.231Z,100971.25
2022-09-06T21:22:02.599Z,100973.69
2022-09-06T21:24:34.155Z,100970.46
2022-09-06T21:27:06.935Z,100971.00
2022-09-06T21:29:38.414Z,100973.27
2022-09-06T21:32:09.872Z,100972.77
2022-09-06T21:34:41.270Z,100970.56
2022-09-06T21:37:12.375Z,100970.95
2022-09-06T21:39:43.721Z,100970.61
2022-09-06T21:42:14.981Z,100969.94
2022-09-06T21:44:46.031Z,100965.67
2022-09-06T21:47:17.161Z,100961.75
2022-09-06T21:49:48.660Z,100960.90
2022-09-06T21:52:20.380Z,100958.34
2022-09-06T21:54:52.596Z,100957.67
2022-09-06T21:57:23.541Z,100959.10
2022-09-06T21:59:54.883Z,100960.67
2022-09-06T22:02:27.358Z,100964.15
2022-09-06T22:04:58.571Z,100961.77
2022-09-06T22:07:29.763Z,100964.58
2022-09-06T22:10:01.227Z,100963.75
2022-09-06T22:12:33.134Z,100959.16
2022-09-06T22:15:04.688Z,100963.14
2022-09-06T22:17:36.041Z,100961.12
2022-09-06T22:20:09.714Z,100958.05
2022-09-06T22:22:44.126Z,100957.23
2022-09-06T22:25:15.899Z,100955.91
2022-09-06T22:27:46.949Z,100953.72
2022-09-06T22:30:21.599Z,100959.92
2022-09-06T22:32:55.737Z,100962.87
2022-09-06T22:35:26.859Z,100959.13
2022-09-06T22:37:57.833Z,100961.03
2022-09-06T22:40:29.135Z,100960.55
2022-09-06T22:43:00.207Z,100960.92
2022-09-06T22:45:32.941Z,100963.02
2022-09-06T22:48:04.390Z,100965.61
2022-09-06T22:50:35.507Z,100963.05
2022-09-06T22:53:07.908Z,100963.58
2022-09-06T22:55:39.796Z,100961.90
2022-09-06T22:58:11.166Z,100962.61
2022-09-06T23:00:42.624Z,100960.39
2022-09-06T23:03:14.449Z,100959.05
2022-09-06T23:05:46.408Z,100955.65
2022-09-06T23:08:18.356Z,100955.00
2022-09-06T23:10:50.648Z,100952.10
2022-09-06T23:13:22.093Z,100951.44
2022-09-06T23:15:53.053Z,100953.87
2022-09-06T23:18:24.102Z,100955.09
2022-09-06T23:20:55.081Z,100956.84
2022-09-06T23:23:26.091Z,100960.46
2022-09-06T23:25:57.045Z,100957.73
2022-09-06T23:28:29.809Z,100956.73
2022-09-06T23:31:04.763Z,100954.01
2022-09-06T23:33:37.496Z,100951.78
2022-09-06T23:36:11.724Z,100948.89
2022-09-06T23:38:43.789Z,100951.99
2022-09-06T23:41:15.550Z,100946.67
2022-09-06T23:43:47.121Z,100944.48
2022-09-06T23:46:19.513Z,100945.70
2022-09-06T23:48:50.629Z,100942.45
2022-09-06T23:51:22.227Z,100943.52
2022-09-06T23:53:53.237Z,100940.46
2022-09-06T23:56:24.202Z,100941.00
2022-09-06T23:58:55.281Z,100936.57
